Portada
METAR-TAF:

METAR-TAF

Aeroports :

Tennant Creek, Austràlia

latitud: 19-38-04S, longitud: 134-11-00E, altitud: 377 m

Observació

L'informe es va fer fa 1 hora i 5 minuts, a les 18:00 UTC
Vent 8 kt del Sud-Est
Temperatura 28°C
Humitat 22%
Pressió 1008 hPa
Visibilitat 10 km o més

METAR: YTNK 091800Z AUTO 13008KT 9999 // NCD 28/04 Q1008

Hora: 04:35 (19:05 UTC)

Pronòstic

L'informe es va fer fa 6 hores i 53 minuts, a les 12:12 UTC
Pronòstic vàlid del 09 a les 14 UTC al 10 a les 02 UTC
Vent 10 kt del Est/Sud-Est
Visibilitat 10 km o més
sense núvols per sota de 1500 mi sense presència de cumulonimbus.
A partir de les 09 a les 2200 UTC
Vent 16 kt del Est
Visibilitat 10 km o més
sense núvols per sota de 1500 mi sense presència de cumulonimbus.

TAF: YTNK 091212Z 0914/1002 11010KT CAVOK FM092200 09016KT CAVOK

Observacions i pronòstics meteorològics de més de 4000 aeroports (METAR i TAF).

Les estacions disponibles són els punts grocs i vermells al mapa.

Posi el ratolí al punt desitjat per veure el nom de l'estació.

Feu clic per veure les observacions i els pronòstics meteorològics.

Per canviar el mapa: feu clic els botons verds amb una creu de color negre per apropar; al botó verd amb un guió per allunyar la imatge; o en les fletxes verdes per a mapes adjacents.


METAR-TAF: